Time;durP1;ratioP1;P1;durP2;ratioP2;P2;SDS_P1;SDS_P2;PMS_P1;PMS_P2;Temp;Humidity;BMP_temperature;BMP_pressure;BME280_temperature;BME280_humidity;BME280_pressure;Samples;Min_cycle;Max_cycle;Signal;HPM_P1;HPM_P2
2022/08/20 00:00:12;;;;;;;7.85;6.70;;;;;;;;;;1845647;77;26715;-50
2022/08/20 00:02:39;;;;;;;9.20;6.67;;;;;;;;;;1845347;77;26346;-50
2022/08/20 00:05:07;;;;;;;8.53;6.72;;;;;;;;;;1849297;77;26216;-53
2022/08/20 00:07:34;;;;;;;9.58;6.40;;;;;;;;;;1844953;76;26732;-51
2022/08/20 00:10:02;;;;;;;10.63;6.92;;;;;;;;;;1841737;76;26833;-53
2022/08/20 00:12:29;;;;;;;11.63;6.92;;;;;;;;;;1846470;77;26269;-52
2022/08/20 00:14:56;;;;;;;9.35;6.67;;;;;;;;;;1848113;77;26251;-51
2022/08/20 00:17:24;;;;;;;8.58;6.90;;;;;;;;;;1857615;76;26301;-50
2022/08/20 00:19:51;;;;;;;7.72;6.05;;;;;;;;;;1842403;76;26537;-50
2022/08/20 00:22:19;;;;;;;8.50;6.78;;;;;;;;;;1860433;76;26313;-49
2022/08/20 00:24:46;;;;;;;12.05;6.97;;;;;;;;;;1848219;75;26227;-49
2022/08/20 00:27:13;;;;;;;7.87;6.90;;;;;;;;;;1850221;76;26241;-52
2022/08/20 00:29:40;;;;;;;7.25;6.50;;;;;;;;;;1860538;76;26287;-52
2022/08/20 00:32:07;;;;;;;10.50;6.58;;;;;;;;;;1843928;76;26225;-52
2022/08/20 00:34:35;;;;;;;8.35;6.47;;;;;;;;;;1856623;76;26220;-53
2022/08/20 00:37:02;;;;;;;7.87;6.12;;;;;;;;;;1846858;76;26343;-51
2022/08/20 00:39:29;;;;;;;7.90;6.25;;;;;;;;;;1861934;75;26770;-50
2022/08/20 00:41:57;;;;;;;7.37;6.60;;;;;;;;;;1873072;75;26333;-49
2022/08/20 00:44:24;;;;;;;15.03;7.60;;;;;;;;;;1860022;76;26284;-49
2022/08/20 00:46:52;;;;;;;7.08;6.40;;;;;;;;;;1860928;76;26250;-51
2022/08/20 00:49:21;;;;;;;9.35;6.20;;;;;;;;;;1860841;77;26258;-52
2022/08/20 00:51:50;;;;;;;9.73;6.75;;;;;;;;;;1831988;76;26308;-52
2022/08/20 00:54:19;;;;;;;9.53;6.08;;;;;;;;;;1846976;77;26705;-54
2022/08/20 00:56:48;;;;;;;9.50;6.28;;;;;;;;;;1848449;75;26671;-50
2022/08/20 00:59:16;;;;;;;7.60;6.28;;;;;;;;;;1860621;75;26333;-50
2022/08/20 01:01:44;;;;;;;11.28;6.00;;;;;;;;;;1859744;76;26286;-51
2022/08/20 01:04:11;;;;;;;9.73;5.90;;;;;;;;;;1855464;75;26251;-52
2022/08/20 01:06:40;;;;;;;9.00;5.92;;;;;;;;;;1839193;75;26261;-52
2022/08/20 01:09:08;;;;;;;11.43;5.95;;;;;;;;;;1846014;75;26224;-52
2022/08/20 01:11:36;;;;;;;9.35;6.00;;;;;;;;;;1860697;76;26255;-53
2022/08/20 01:16:54;;;;;;;13.93;5.50;;;;;;;;;;1852194;76;26312;-52
2022/08/20 01:19:23;;;;;;;10.82;5.70;;;;;;;;;;1843213;77;26279;-51
2022/08/20 01:21:51;;;;;;;10.00;5.62;;;;;;;;;;1843472;76;26219;-53
2022/08/20 01:24:23;;;;;;;10.08;5.40;;;;;;;;;;1842350;77;26809;-51
2022/08/20 01:26:51;;;;;;;7.40;5.28;;;;;;;;;;1834379;76;26267;-52
2022/08/20 01:29:19;;;;;;;6.45;5.45;;;;;;;;;;1843872;76;27394;-52
2022/08/20 01:31:47;;;;;;;6.00;5.12;;;;;;;;;;1846101;76;26703;-52
2022/08/20 01:34:16;;;;;;;8.85;5.35;;;;;;;;;;1852061;76;26353;-51
2022/08/20 01:36:44;;;;;;;6.58;5.10;;;;;;;;;;1841289;76;26643;-53
2022/08/20 01:39:14;;;;;;;8.30;5.42;;;;;;;;;;1847916;76;26360;-51
2022/08/20 01:41:44;;;;;;;10.18;5.08;;;;;;;;;;1849557;76;26275;-50
2022/08/20 01:44:13;;;;;;;7.55;5.30;;;;;;;;;;1846405;76;26286;-50
2022/08/20 01:46:41;;;;;;;6.67;5.10;;;;;;;;;;1848706;76;26241;-51
2022/08/20 01:49:13;;;;;;;5.28;4.78;;;;;;;;;;1839195;76;26397;-52
2022/08/20 01:51:40;;;;;;;6.90;5.03;;;;;;;;;;1832822;77;26206;-50
2022/08/20 01:54:07;;;;;;;5.75;4.67;;;;;;;;;;1843711;76;26826;-51
2022/08/20 01:56:35;;;;;;;7.70;4.95;;;;;;;;;;1826417;76;26969;-54
2022/08/20 01:59:07;;;;;;;7.62;5.50;;;;;;;;;;1833488;77;26282;-49
2022/08/20 02:01:39;;;;;;;10.23;5.80;;;;;;;;;;1836310;77;26337;-53
2022/08/20 02:04:07;;;;;;;8.38;5.25;;;;;;;;;;1838341;76;26345;-49
2022/08/20 02:06:36;;;;;;;7.28;5.42;;;;;;;;;;1838374;76;26951;-52
2022/08/20 02:09:04;;;;;;;8.80;5.62;;;;;;;;;;1834327;77;26287;-48
2022/08/20 02:11:33;;;;;;;8.15;4.97;;;;;;;;;;1839587;77;26756;-50
2022/08/20 02:14:01;;;;;;;10.82;5.92;;;;;;;;;;1832314;77;26287;-51
2022/08/20 02:16:30;;;;;;;7.55;5.33;;;;;;;;;;1837635;76;26427;-50
2022/08/20 02:18:58;;;;;;;7.47;5.60;;;;;;;;;;1854859;75;26282;-49
2022/08/20 02:21:27;;;;;;;9.45;5.75;;;;;;;;;;1855164;76;26345;-49
2022/08/20 02:23:55;;;;;;;7.92;5.80;;;;;;;;;;1842466;76;26922;-51
2022/08/20 02:26:22;;;;;;;9.30;5.70;;;;;;;;;;1855741;77;26655;-51
2022/08/20 02:28:51;;;;;;;6.42;5.25;;;;;;;;;;1844535;76;26333;-52
2022/08/20 02:31:20;;;;;;;12.78;5.58;;;;;;;;;;1857085;77;26352;-50
2022/08/20 02:33:48;;;;;;;8.68;5.17;;;;;;;;;;1849384;75;26361;-51
2022/08/20 02:36:18;;;;;;;9.68;5.60;;;;;;;;;;1849488;75;27572;-48
2022/08/20 02:38:45;;;;;;;6.47;5.22;;;;;;;;;;1853178;76;26320;-49
2022/08/20 02:41:14;;;;;;;8.65;5.40;;;;;;;;;;1846950;76;26219;-51
2022/08/20 02:43:41;;;;;;;12.05;6.22;;;;;;;;;;1845165;76;26228;-52
2022/08/20 02:46:08;;;;;;;8.50;5.47;;;;;;;;;;1848324;76;26263;-49
2022/08/20 02:48:36;;;;;;;9.13;5.75;;;;;;;;;;1848407;75;26304;-52
2022/08/20 02:51:04;;;;;;;13.28;5.90;;;;;;;;;;1858175;76;26722;-52
2022/08/20 02:53:33;;;;;;;7.15;5.83;;;;;;;;;;1852177;76;26274;-51
2022/08/20 02:56:01;;;;;;;8.20;6.00;;;;;;;;;;1851205;77;26263;-52
2022/08/20 02:58:28;;;;;;;11.78;5.92;;;;;;;;;;1853335;76;26329;-50
2022/08/20 03:00:56;;;;;;;6.97;5.70;;;;;;;;;;1852319;76;26395;-50
2022/08/20 03:03:23;;;;;;;9.28;5.70;;;;;;;;;;1846211;75;26588;-49
2022/08/20 03:05:52;;;;;;;10.23;5.80;;;;;;;;;;1847400;76;26831;-50
2022/08/20 03:08:20;;;;;;;10.53;6.20;;;;;;;;;;1856250;75;26691;-50
2022/08/20 03:10:48;;;;;;;10.55;6.25;;;;;;;;;;1847401;76;26348;-48
2022/08/20 03:13:16;;;;;;;9.30;5.85;;;;;;;;;;1859129;76;26278;-48
2022/08/20 03:15:45;;;;;;;10.85;5.85;;;;;;;;;;1839459;76;26293;-48
2022/08/20 03:18:13;;;;;;;8.80;5.83;;;;;;;;;;1850889;76;26384;-50
2022/08/20 03:20:41;;;;;;;9.05;5.45;;;;;;;;;;1857737;76;26364;-51
2022/08/20 03:23:08;;;;;;;9.30;5.55;;;;;;;;;;1850979;75;26321;-48
2022/08/20 03:25:36;;;;;;;9.85;5.67;;;;;;;;;;1853166;76;26331;-51
2022/08/20 03:28:04;;;;;;;11.33;5.95;;;;;;;;;;1852495;76;26270;-48
2022/08/20 03:30:31;;;;;;;7.08;5.62;;;;;;;;;;1845552;76;26274;-48
2022/08/20 03:32:59;;;;;;;10.08;5.60;;;;;;;;;;1850667;77;26313;-53
2022/08/20 03:35:27;;;;;;;11.08;5.78;;;;;;;;;;1851313;77;26263;-49
2022/08/20 03:37:54;;;;;;;6.40;5.75;;;;;;;;;;1848449;75;26629;-46
2022/08/20 03:40:23;;;;;;;12.37;6.00;;;;;;;;;;1848027;76;26348;-49
2022/08/20 03:42:51;;;;;;;7.15;5.50;;;;;;;;;;1845673;76;26320;-49
2022/08/20 03:45:19;;;;;;;10.23;5.70;;;;;;;;;;1851423;76;26258;-53
2022/08/20 03:47:47;;;;;;;9.68;5.70;;;;;;;;;;1843354;76;26807;-50
2022/08/20 03:50:14;;;;;;;9.90;5.75;;;;;;;;;;1847547;76;26312;-49
2022/08/20 03:52:42;;;;;;;11.88;5.50;;;;;;;;;;1850134;75;27408;-51
2022/08/20 03:55:10;;;;;;;8.60;5.72;;;;;;;;;;1851776;76;27230;-50
2022/08/20 03:57:39;;;;;;;10.35;5.60;;;;;;;;;;1850410;76;26258;-52
2022/08/20 04:00:07;;;;;;;10.88;6.35;;;;;;;;;;1844444;76;26294;-53
2022/08/20 04:02:34;;;;;;;10.48;5.87;;;;;;;;;;1836580;77;26219;-51
2022/08/20 04:05:01;;;;;;;10.60;5.47;;;;;;;;;;1849441;76;26262;-51
2022/08/20 04:07:28;;;;;;;8.08;5.50;;;;;;;;;;1860612;75;26254;-49
2022/08/20 04:09:57;;;;;;;6.53;5.72;;;;;;;;;;1862952;75;26353;-52
2022/08/20 04:12:24;;;;;;;8.65;5.85;;;;;;;;;;1859991;75;26751;-52
2022/08/20 04:14:52;;;;;;;10.53;6.33;;;;;;;;;;1861667;75;26332;-46
2022/08/20 04:17:20;;;;;;;8.70;5.83;;;;;;;;;;1860762;75;26295;-51
2022/08/20 04:19:47;;;;;;;7.50;5.35;;;;;;;;;;1861423;76;26271;-50
2022/08/20 04:22:14;;;;;;;12.30;5.67;;;;;;;;;;1861961;75;26356;-50
2022/08/20 04:24:42;;;;;;;9.55;6.12;;;;;;;;;;1861400;75;26698;-52
2022/08/20 04:27:10;;;;;;;12.70;6.17;;;;;;;;;;1860204;75;26266;-51
2022/08/20 04:29:41;;;;;;;11.30;6.28;;;;;;;;;;1857226;76;26737;-49
2022/08/20 04:32:08;;;;;;;7.60;5.80;;;;;;;;;;1843568;75;26238;-53
2022/08/20 04:34:35;;;;;;;8.25;5.55;;;;;;;;;;1837678;75;26276;-51
2022/08/20 04:37:04;;;;;;;12.68;6.55;;;;;;;;;;1868045;75;26268;-51
2022/08/20 04:39:32;;;;;;;8.48;5.87;;;;;;;;;;1859302;75;26224;-52
2022/08/20 04:41:59;;;;;;;7.15;5.70;;;;;;;;;;1852554;75;26750;-52
2022/08/20 04:44:27;;;;;;;9.58;5.83;;;;;;;;;;1846451;75;26674;-52
2022/08/20 04:46:54;;;;;;;10.65;6.10;;;;;;;;;;1851485;76;26356;-52
2022/08/20 04:49:25;;;;;;;6.95;5.65;;;;;;;;;;1860937;76;26738;-53
2022/08/20 04:51:51;;;;;;;7.83;6.05;;;;;;;;;;1862522;75;26850;-49
2022/08/20 04:54:18;;;;;;;9.25;6.40;;;;;;;;;;1849553;77;26327;-51
2022/08/20 04:56:47;;;;;;;10.65;5.60;;;;;;;;;;1839772;76;26328;-51
2022/08/20 04:59:14;;;;;;;10.05;6.12;;;;;;;;;;1858353;77;26270;-50
2022/08/20 05:01:41;;;;;;;7.60;5.72;;;;;;;;;;1861634;77;26262;-49
2022/08/20 05:04:09;;;;;;;9.55;6.10;;;;;;;;;;1860705;76;26726;-49
2022/08/20 05:06:36;;;;;;;9.33;6.00;;;;;;;;;;1861460;75;26352;-49
2022/08/20 05:09:04;;;;;;;7.33;5.70;;;;;;;;;;1861123;76;26759;-50
2022/08/20 05:11:31;;;;;;;11.22;5.97;;;;;;;;;;1849804;76;26237;-51
2022/08/20 05:13:59;;;;;;;11.03;6.35;;;;;;;;;;1855561;75;26267;-49
2022/08/20 05:16:26;;;;;;;7.90;6.12;;;;;;;;;;1844233;76;26244;-49
2022/08/20 05:18:53;;;;;;;9.90;6.12;;;;;;;;;;1838288;76;26298;-50
2022/08/20 05:21:21;;;;;;;9.58;6.33;;;;;;;;;;1838035;76;26333;-49
2022/08/20 05:23:48;;;;;;;12.03;6.20;;;;;;;;;;1835228;76;26323;-48
2022/08/20 05:26:18;;;;;;;9.70;6.10;;;;;;;;;;1842881;77;26270;-46
2022/08/20 05:28:45;;;;;;;7.50;5.28;;;;;;;;;;1849866;77;26310;-49
2022/08/20 05:31:14;;;;;;;7.12;5.53;;;;;;;;;;1837423;77;26219;-50
2022/08/20 05:33:41;;;;;;;13.10;5.65;;;;;;;;;;1845755;76;26291;-48
2022/08/20 05:36:08;;;;;;;10.10;5.65;;;;;;;;;;1846171;77;26360;-52
2022/08/20 05:38:36;;;;;;;16.95;5.72;;;;;;;;;;1853008;76;26245;-49
2022/08/20 05:41:04;;;;;;;7.72;4.95;;;;;;;;;;1854505;77;26266;-52
2022/08/20 05:43:32;;;;;;;8.10;4.92;;;;;;;;;;1847846;76;26257;-52
2022/08/20 05:46:01;;;;;;;10.93;5.03;;;;;;;;;;1847891;76;26353;-48
2022/08/20 05:48:28;;;;;;;8.78;4.50;;;;;;;;;;1843274;76;26267;-48
2022/08/20 05:50:56;;;;;;;11.18;4.95;;;;;;;;;;1844535;76;26778;-49
2022/08/20 05:53:24;;;;;;;7.70;4.72;;;;;;;;;;1846153;76;26365;-50
2022/08/20 05:55:52;;;;;;;9.75;4.67;;;;;;;;;;1848477;76;26259;-49
2022/08/20 05:58:24;;;;;;;9.10;4.20;;;;;;;;;;1847304;76;26721;-51
2022/08/20 06:00:52;;;;;;;6.00;4.33;;;;;;;;;;1840927;76;26349;-51
2022/08/20 06:06:05;;;;;;;8.45;4.10;;;;;;;;;;1845939;76;26357;-51
2022/08/20 06:08:33;;;;;;;5.65;4.03;;;;;;;;;;1848157;76;26263;-51
2022/08/20 06:11:00;;;;;;;7.33;3.95;;;;;;;;;;1843320;76;26360;-50
2022/08/20 06:13:28;;;;;;;5.55;4.10;;;;;;;;;;1842131;76;26313;-53
2022/08/20 06:15:56;;;;;;;7.50;3.80;;;;;;;;;;1845985;76;26723;-51
2022/08/20 06:18:24;;;;;;;7.00;3.60;;;;;;;;;;1847502;76;26379;-52
2022/08/20 06:20:51;;;;;;;4.25;3.85;;;;;;;;;;1859455;75;26245;-50
2022/08/20 06:23:19;;;;;;;5.62;3.80;;;;;;;;;;1861308;76;26664;-54
2022/08/20 06:25:48;;;;;;;4.12;3.72;;;;;;;;;;1861955;76;27541;-52
2022/08/20 06:28:16;;;;;;;4.25;3.60;;;;;;;;;;1861839;76;26824;-53
2022/08/20 06:30:43;;;;;;;5.15;3.70;;;;;;;;;;1861578;76;26296;-52
2022/08/20 06:33:11;;;;;;;3.72;3.30;;;;;;;;;;1858656;75;26728;-54
2022/08/20 06:35:38;;;;;;;5.22;3.47;;;;;;;;;;1855202;75;26228;-55
2022/08/20 06:38:05;;;;;;;5.10;3.45;;;;;;;;;;1858553;75;26266;-52
2022/08/20 06:40:33;;;;;;;6.42;3.45;;;;;;;;;;1844239;75;26286;-50
2022/08/20 06:43:00;;;;;;;3.72;3.40;;;;;;;;;;1860321;75;26357;-53
2022/08/20 06:45:30;;;;;;;4.75;3.40;;;;;;;;;;1861423;76;26258;-51
2022/08/20 06:47:59;;;;;;;5.25;3.65;;;;;;;;;;1860679;76;26336;-50
2022/08/20 06:50:28;;;;;;;5.90;3.90;;;;;;;;;;1859431;75;26278;-50
2022/08/20 06:52:55;;;;;;;4.72;3.22;;;;;;;;;;1855393;75;26292;-52
2022/08/20 06:55:23;;;;;;;5.45;3.22;;;;;;;;;;1855285;76;26799;-52
2022/08/20 06:57:58;;;;;;;3.47;3.17;;;;;;;;;;1852950;75;26260;-51
2022/08/20 07:00:26;;;;;;;3.85;3.50;;;;;;;;;;1858734;76;26384;-50
2022/08/20 07:02:53;;;;;;;7.03;3.40;;;;;;;;;;1855009;76;27538;-51
2022/08/20 07:05:20;;;;;;;8.05;3.35;;;;;;;;;;1846654;75;26278;-53
2022/08/20 07:07:49;;;;;;;3.37;3.08;;;;;;;;;;1853685;76;26360;-53
2022/08/20 07:10:18;;;;;;;7.62;3.17;;;;;;;;;;1846919;76;26275;-52
2022/08/20 07:12:45;;;;;;;7.42;3.37;;;;;;;;;;1854305;75;26266;-53
2022/08/20 07:15:14;;;;;;;6.37;3.92;;;;;;;;;;1854118;76;26274;-54
2022/08/20 07:17:41;;;;;;;9.38;4.35;;;;;;;;;;1848170;76;26278;-53
2022/08/20 07:20:10;;;;;;;8.65;4.50;;;;;;;;;;1844302;76;26379;-52
2022/08/20 07:22:37;;;;;;;5.72;4.47;;;;;;;;;;1823296;78;26758;-51
2022/08/20 07:25:05;;;;;;;9.70;4.80;;;;;;;;;;1816921;77;26267;-52
2022/08/20 07:27:33;;;;;;;7.87;5.00;;;;;;;;;;1821613;78;26258;-53
2022/08/20 07:32:46;;;;;;;11.93;5.60;;;;;;;;;;1819304;77;27502;-54
2022/08/20 07:35:14;;;;;;;10.03;5.72;;;;;;;;;;1822906;77;26360;-54
2022/08/20 07:37:43;;;;;;;7.00;5.00;;;;;;;;;;1826547;77;26258;-54
2022/08/20 07:40:12;;;;;;;6.70;5.20;;;;;;;;;;1824599;77;26300;-54
2022/08/20 07:42:39;;;;;;;13.83;5.28;;;;;;;;;;1821244;76;26843;-49
2022/08/20 07:45:09;;;;;;;10.32;5.30;;;;;;;;;;1810401;77;26272;-52
2022/08/20 07:47:38;;;;;;;7.60;5.37;;;;;;;;;;1820888;77;26290;-52
2022/08/20 07:50:06;;;;;;;7.37;5.10;;;;;;;;;;1797977;78;26310;-49
2022/08/20 07:52:34;;;;;;;7.75;5.55;;;;;;;;;;1790310;78;26643;-53
2022/08/20 07:55:04;;;;;;;7.97;5.12;;;;;;;;;;1815511;77;26283;-51
2022/08/20 07:57:32;;;;;;;12.13;5.42;;;;;;;;;;1820836;77;26274;-54
2022/08/20 07:59:59;;;;;;;8.33;5.25;;;;;;;;;;1811219;78;26276;-51
2022/08/20 08:02:27;;;;;;;9.68;5.45;;;;;;;;;;1799994;78;26753;-53
2022/08/20 08:04:55;;;;;;;8.45;4.90;;;;;;;;;;1789080;78;26344;-53
2022/08/20 08:07:23;;;;;;;6.78;4.97;;;;;;;;;;1788309;78;26872;-52
2022/08/20 08:09:50;;;;;;;7.37;5.12;;;;;;;;;;1818105;77;26305;-52
2022/08/20 08:12:18;;;;;;;6.60;5.20;;;;;;;;;;1790801;78;26233;-51
2022/08/20 08:14:45;;;;;;;7.67;4.90;;;;;;;;;;1799915;78;26266;-54
2022/08/20 08:17:15;;;;;;;7.97;5.12;;;;;;;;;;1824900;77;26258;-54
2022/08/20 08:19:44;;;;;;;12.50;5.70;;;;;;;;;;1824551;76;26313;-49
2022/08/20 08:22:12;;;;;;;25.68;8.28;;;;;;;;;;1825075;77;26282;-53
2022/08/20 08:24:42;;;;;;;39.27;9.63;;;;;;;;;;1822451;76;27033;-53
2022/08/20 08:27:09;;;;;;;33.42;8.68;;;;;;;;;;1835407;76;26274;-51
2022/08/20 08:29:37;;;;;;;21.35;8.30;;;;;;;;;;1833754;76;26289;-51
2022/08/20 08:32:05;;;;;;;16.10;7.42;;;;;;;;;;1825319;76;26325;-53
2022/08/20 08:34:33;;;;;;;17.30;6.90;;;;;;;;;;1826509;76;26831;-53
2022/08/20 08:37:04;;;;;;;16.52;7.22;;;;;;;;;;1833929;76;26270;-52
2022/08/20 08:39:32;;;;;;;18.48;7.97;;;;;;;;;;1826849;76;27576;-54
2022/08/20 08:42:01;;;;;;;28.47;10.35;;;;;;;;;;1830894;77;25826;-52
2022/08/20 08:44:37;;;;;;;21.20;9.83;;;;;;;;;;1830097;76;26764;-52
2022/08/20 08:47:12;;;;;;;26.23;10.40;;;;;;;;;;1835858;76;26624;-52
2022/08/20 08:49:38;;;;;;;21.07;9.13;;;;;;;;;;1828596;76;26294;-55
2022/08/20 08:52:06;;;;;;;17.40;9.43;;;;;;;;;;1842832;76;26267;-54
2022/08/20 08:54:34;;;;;;;20.43;9.73;;;;;;;;;;1832799;76;26223;-55
2022/08/20 08:57:02;;;;;;;14.63;8.15;;;;;;;;;;1827567;78;26726;-55
2022/08/20 08:59:30;;;;;;;15.03;8.50;;;;;;;;;;1821886;78;26336;-54
2022/08/20 09:02:00;;;;;;;11.83;8.15;;;;;;;;;;1831071;78;26289;-52
2022/08/20 09:04:30;;;;;;;17.20;7.25;;;;;;;;;;1851606;77;26265;-55
2022/08/20 09:06:58;;;;;;;14.00;7.45;;;;;;;;;;1850803;76;27401;-55
2022/08/20 09:09:26;;;;;;;11.20;6.92;;;;;;;;;;1849727;76;26259;-55
2022/08/20 09:11:55;;;;;;;11.63;7.20;;;;;;;;;;1851408;76;26317;-55
2022/08/20 09:14:26;;;;;;;8.63;6.78;;;;;;;;;;1851699;76;26259;-54
2022/08/20 09:16:53;;;;;;;10.30;6.95;;;;;;;;;;1852003;76;26579;-57
2022/08/20 09:19:21;;;;;;;9.85;6.75;;;;;;;;;;1852068;76;26384;-57
2022/08/20 09:21:48;;;;;;;8.03;6.22;;;;;;;;;;1844629;76;26319;-57
2022/08/20 09:24:16;;;;;;;9.78;6.40;;;;;;;;;;1844880;76;26261;-56
2022/08/20 09:26:43;;;;;;;8.60;6.15;;;;;;;;;;1843827;77;26279;-55
2022/08/20 09:29:10;;;;;;;6.85;5.75;;;;;;;;;;1854306;76;26875;-57
2022/08/20 09:31:38;;;;;;;6.78;5.53;;;;;;;;;;1848100;76;26732;-56
2022/08/20 09:34:05;;;;;;;6.78;5.80;;;;;;;;;;1848927;76;26271;-54
2022/08/20 09:36:34;;;;;;;6.22;5.50;;;;;;;;;;1843924;76;26658;-56
2022/08/20 09:39:01;;;;;;;7.65;5.58;;;;;;;;;;1845257;76;26282;-55
2022/08/20 09:41:29;;;;;;;8.03;5.60;;;;;;;;;;1845930;76;26693;-55
2022/08/20 09:43:56;;;;;;;8.38;5.65;;;;;;;;;;1844992;76;26305;-54
2022/08/20 09:46:23;;;;;;;6.78;5.75;;;;;;;;;;1847573;76;26267;-54
2022/08/20 09:48:50;;;;;;;7.78;5.70;;;;;;;;;;1846514;76;26356;-52
2022/08/20 09:51:18;;;;;;;8.65;5.45;;;;;;;;;;1845617;78;26271;-51
2022/08/20 09:53:45;;;;;;;6.85;5.22;;;;;;;;;;1829686;76;26717;-49
2022/08/20 09:56:12;;;;;;;5.00;4.60;;;;;;;;;;1856091;76;26345;-54
2022/08/20 09:58:44;;;;;;;5.83;5.17;;;;;;;;;;1840492;78;26322;-53
2022/08/20 10:01:15;;;;;;;7.33;5.37;;;;;;;;;;1845803;77;26800;-53
2022/08/20 10:03:44;;;;;;;5.62;5.08;;;;;;;;;;1848189;76;26282;-54
2022/08/20 10:06:13;;;;;;;5.35;4.85;;;;;;;;;;1850559;77;26282;-53
2022/08/20 10:08:40;;;;;;;6.85;5.40;;;;;;;;;;1845707;77;26684;-51
2022/08/20 10:11:07;;;;;;;6.53;4.65;;;;;;;;;;1842555;77;26329;-54
2022/08/20 10:13:35;;;;;;;4.90;4.50;;;;;;;;;;1838423;77;26262;-54
2022/08/20 10:16:02;;;;;;;6.25;4.90;;;;;;;;;;1843512;76;26719;-54
2022/08/20 10:18:30;;;;;;;5.28;4.75;;;;;;;;;;1845300;77;26373;-54
2022/08/20 10:20:57;;;;;;;5.28;4.78;;;;;;;;;;1837763;76;26368;-51
2022/08/20 10:23:24;;;;;;;6.28;4.60;;;;;;;;;;1849843;76;26257;-54
2022/08/20 10:25:51;;;;;;;4.92;4.50;;;;;;;;;;1848912;76;26271;-56
2022/08/20 10:28:19;;;;;;;7.25;5.12;;;;;;;;;;1835870;76;26699;-53
2022/08/20 10:30:46;;;;;;;5.10;4.70;;;;;;;;;;1825204;77;26784;-53
2022/08/20 10:33:13;;;;;;;5.03;4.25;;;;;;;;;;1851731;76;26276;-54
2022/08/20 10:35:41;;;;;;;5.92;4.50;;;;;;;;;;1851839;77;26774;-53
2022/08/20 10:38:08;;;;;;;5.40;4.90;;;;;;;;;;1852997;76;26762;-54
2022/08/20 10:40:35;;;;;;;5.40;4.90;;;;;;;;;;1850090;77;26717;-54
2022/08/20 10:43:03;;;;;;;4.70;4.30;;;;;;;;;;1851912;76;26312;-54
2022/08/20 10:45:30;;;;;;;5.25;4.70;;;;;;;;;;1852319;76;26254;-55
2022/08/20 10:48:00;;;;;;;6.25;5.17;;;;;;;;;;1851245;77;26325;-52
2022/08/20 10:50:28;;;;;;;4.90;4.47;;;;;;;;;;1849374;76;26364;-54
2022/08/20 10:52:55;;;;;;;5.20;4.60;;;;;;;;;;1851856;76;26750;-51
2022/08/20 10:55:22;;;;;;;4.70;4.30;;;;;;;;;;1852002;76;26333;-53
2022/08/20 10:57:50;;;;;;;4.87;4.47;;;;;;;;;;1852076;76;26261;-53
2022/08/20 11:00:18;;;;;;;4.58;4.28;;;;;;;;;;1841359;76;26325;-49
2022/08/20 11:02:45;;;;;;;5.05;4.53;;;;;;;;;;1845837;77;26738;-54
2022/08/20 11:05:13;;;;;;;4.78;4.37;;;;;;;;;;1845128;77;26251;-54
2022/08/20 11:07:42;;;;;;;4.70;4.20;;;;;;;;;;1855808;76;26259;-54
2022/08/20 11:10:09;;;;;;;5.55;4.30;;;;;;;;;;1841046;75;26301;-54
2022/08/20 11:12:37;;;;;;;4.70;4.30;;;;;;;;;;1857301;75;27672;-54
2022/08/20 11:15:04;;;;;;;4.53;4.22;;;;;;;;;;1860357;76;26279;-52
2022/08/20 11:17:33;;;;;;;5.15;4.60;;;;;;;;;;1860349;76;26297;-53
2022/08/20 11:20:02;;;;;;;4.70;4.30;;;;;;;;;;1863570;75;26266;-52
2022/08/20 11:22:29;;;;;;;5.12;4.60;;;;;;;;;;1834631;75;26419;-54
2022/08/20 11:24:56;;;;;;;7.22;4.30;;;;;;;;;;1855246;76;26266;-52
2022/08/20 11:27:25;;;;;;;5.10;4.60;;;;;;;;;;1853686;76;26273;-53
2022/08/20 11:29:53;;;;;;;4.50;4.15;;;;;;;;;;1849336;75;26341;-52
2022/08/20 11:32:20;;;;;;;5.17;4.33;;;;;;;;;;1850694;76;26590;-53
2022/08/20 11:34:48;;;;;;;6.03;4.28;;;;;;;;;;1848934;76;26255;-53
2022/08/20 11:37:16;;;;;;;4.85;4.45;;;;;;;;;;1853760;75;26686;-53
2022/08/20 11:39:43;;;;;;;6.47;4.72;;;;;;;;;;1853757;76;26344;-48
2022/08/20 11:42:10;;;;;;;4.72;4.30;;;;;;;;;;1861234;76;26852;-46
2022/08/20 11:44:38;;;;;;;4.70;4.30;;;;;;;;;;1863200;76;26274;-47
2022/08/20 11:47:06;;;;;;;5.30;4.65;;;;;;;;;;1863319;75;26282;-52
2022/08/20 11:49:34;;;;;;;9.20;4.70;;;;;;;;;;1847263;76;26282;-49
2022/08/20 11:52:01;;;;;;;4.92;4.53;;;;;;;;;;1861088;75;26275;-53
2022/08/20 11:54:30;;;;;;;5.03;4.53;;;;;;;;;;1846749;76;26312;-52
2022/08/20 11:56:58;;;;;;;6.42;4.78;;;;;;;;;;1840910;76;26296;-50
2022/08/20 11:59:27;;;;;;;7.70;4.65;;;;;;;;;;1864010;75;26774;-52
2022/08/20 12:01:54;;;;;;;5.70;4.67;;;;;;;;;;1844372;76;26765;-49
2022/08/20 12:04:22;;;;;;;6.10;4.83;;;;;;;;;;1852955;76;26602;-54
2022/08/20 12:06:49;;;;;;;5.97;4.30;;;;;;;;;;1850684;76;26266;-51
2022/08/20 12:09:17;;;;;;;6.83;5.10;;;;;;;;;;1853605;76;26257;-50
2022/08/20 12:11:45;;;;;;;10.65;5.58;;;;;;;;;;1843355;76;26305;-51
2022/08/20 12:14:12;;;;;;;12.00;6.50;;;;;;;;;;1856393;76;26714;-51
2022/08/20 12:16:39;;;;;;;13.20;7.08;;;;;;;;;;1852948;75;26343;-51
2022/08/20 12:19:06;;;;;;;13.58;6.87;;;;;;;;;;1859500;75;26258;-52
2022/08/20 12:21:34;;;;;;;13.93;7.50;;;;;;;;;;1858820;75;26297;-50
2022/08/20 12:24:01;;;;;;;14.38;7.72;;;;;;;;;;1856275;76;26340;-53
2022/08/20 12:26:28;;;;;;;13.90;7.62;;;;;;;;;;1857648;76;26297;-51
2022/08/20 12:28:56;;;;;;;13.40;7.85;;;;;;;;;;1858387;76;26266;-51
2022/08/20 12:31:23;;;;;;;16.12;8.20;;;;;;;;;;1856855;76;26274;-51
2022/08/20 12:33:50;;;;;;;12.65;8.10;;;;;;;;;;1851185;76;26266;-51
2022/08/20 12:36:17;;;;;;;14.38;7.87;;;;;;;;;;1852596;76;26254;-53
2022/08/20 12:38:44;;;;;;;15.75;7.37;;;;;;;;;;1855190;75;26314;-49
2022/08/20 12:41:12;;;;;;;11.78;7.80;;;;;;;;;;1849267;76;26266;-54
2022/08/20 12:43:39;;;;;;;15.03;7.83;;;;;;;;;;1853698;76;26337;-51
2022/08/20 12:46:06;;;;;;;13.65;7.90;;;;;;;;;;1859866;76;26275;-49
2022/08/20 12:48:33;;;;;;;13.93;8.30;;;;;;;;;;1848795;75;26269;-51
2022/08/20 12:51:01;;;;;;;13.55;8.43;;;;;;;;;;1850819;76;26344;-53
2022/08/20 12:53:28;;;;;;;17.05;8.90;;;;;;;;;;1856737;76;26284;-51
2022/08/20 12:55:55;;;;;;;14.60;8.43;;;;;;;;;;1861826;76;26301;-53
2022/08/20 12:58:23;;;;;;;11.75;8.38;;;;;;;;;;1859374;76;26254;-50
2022/08/20 13:00:51;;;;;;;12.88;7.92;;;;;;;;;;1855246;76;27427;-50
2022/08/20 13:03:19;;;;;;;15.00;8.23;;;;;;;;;;1855327;76;26305;-50
2022/08/20 13:05:47;;;;;;;13.90;7.80;;;;;;;;;;1861564;76;26343;-51
2022/08/20 13:08:16;;;;;;;13.43;7.83;;;;;;;;;;1860016;76;26797;-48
2022/08/20 13:10:44;;;;;;;12.60;8.03;;;;;;;;;;1860319;76;26286;-50
2022/08/20 13:13:12;;;;;;;11.78;8.03;;;;;;;;;;1851096;76;26268;-52
2022/08/20 13:15:39;;;;;;;14.98;7.92;;;;;;;;;;1850101;76;27521;-52
2022/08/20 13:18:07;;;;;;;14.07;8.10;;;;;;;;;;1848904;75;26278;-52
2022/08/20 13:20:35;;;;;;;10.15;8.30;;;;;;;;;;1854442;75;26333;-51
2022/08/20 13:23:03;;;;;;;12.85;8.33;;;;;;;;;;1852683;76;26305;-52
2022/08/20 13:25:31;;;;;;;15.43;8.28;;;;;;;;;;1842042;76;26332;-49
2022/08/20 13:27:59;;;;;;;12.13;7.60;;;;;;;;;;1854443;76;26299;-50
2022/08/20 13:30:27;;;;;;;15.58;8.13;;;;;;;;;;1846585;76;26278;-51
2022/08/20 13:32:54;;;;;;;12.50;8.20;;;;;;;;;;1849253;76;26294;-49
2022/08/20 13:35:22;;;;;;;12.30;8.23;;;;;;;;;;1851691;76;26398;-49
2022/08/20 13:37:50;;;;;;;10.43;8.00;;;;;;;;;;1852559;76;26392;-54
2022/08/20 13:40:17;;;;;;;12.95;7.87;;;;;;;;;;1845118;76;26747;-52
2022/08/20 13:42:45;;;;;;;14.95;8.23;;;;;;;;;;1841952;75;26286;-51
2022/08/20 13:45:13;;;;;;;12.53;8.05;;;;;;;;;;1849737;76;26262;-49
2022/08/20 13:47:41;;;;;;;12.35;8.23;;;;;;;;;;1839816;76;26203;-53
2022/08/20 13:50:09;;;;;;;11.12;8.00;;;;;;;;;;1855188;76;26325;-51
2022/08/20 13:52:38;;;;;;;9.68;7.58;;;;;;;;;;1857503;76;26262;-52
2022/08/20 13:55:06;;;;;;;11.60;7.58;;;;;;;;;;1843876;75;26761;-53
2022/08/20 13:57:34;;;;;;;9.30;7.15;;;;;;;;;;1853823;76;26391;-54
2022/08/20 14:00:01;;;;;;;10.90;7.60;;;;;;;;;;1851700;76;26267;-53
2022/08/20 14:02:29;;;;;;;12.18;7.67;;;;;;;;;;1854750;76;26360;-50
2022/08/20 14:04:56;;;;;;;12.68;7.60;;;;;;;;;;1842782;76;26281;-50
2022/08/20 14:07:28;;;;;;;12.85;7.22;;;;;;;;;;1843142;76;26360;-53
2022/08/20 14:09:57;;;;;;;12.33;7.45;;;;;;;;;;1840360;76;26222;-52
2022/08/20 14:12:25;;;;;;;11.28;7.53;;;;;;;;;;1854683;76;26845;-50
2022/08/20 14:14:52;;;;;;;9.65;7.47;;;;;;;;;;1845442;76;26259;-54
2022/08/20 14:17:24;;;;;;;11.85;7.50;;;;;;;;;;1854776;76;26248;-51
2022/08/20 14:19:52;;;;;;;8.53;7.15;;;;;;;;;;1843879;75;26310;-52
2022/08/20 14:22:20;;;;;;;10.43;7.05;;;;;;;;;;1854814;76;26377;-51
2022/08/20 14:24:48;;;;;;;10.85;7.28;;;;;;;;;;1827997;77;26808;-54
2022/08/20 14:27:16;;;;;;;15.72;7.53;;;;;;;;;;1825920;77;26281;-54
2022/08/20 14:29:45;;;;;;;11.28;7.22;;;;;;;;;;1824498;77;26343;-52
2022/08/20 14:32:12;;;;;;;11.22;7.67;;;;;;;;;;1817300;77;26842;-51
2022/08/20 14:34:40;;;;;;;10.82;7.00;;;;;;;;;;1817382;77;26331;-53
2022/08/20 14:37:11;;;;;;;11.30;7.20;;;;;;;;;;1825029;77;26281;-53
2022/08/20 14:39:38;;;;;;;11.05;7.12;;;;;;;;;;1819906;77;26217;-51
2022/08/20 14:42:06;;;;;;;12.23;6.97;;;;;;;;;;1829107;77;26321;-53
2022/08/20 14:44:33;;;;;;;10.98;7.08;;;;;;;;;;1819162;77;27029;-51
2022/08/20 14:47:14;;;;;;;11.50;8.03;;;;;;;;;;1816307;77;26331;-53
2022/08/20 14:49:42;;;;;;;11.55;8.63;;;;;;;;;;1811559;77;26530;-50